Terminal Aerodrome Forecast
Issued by NWS Nashville, TN

Home | Current Version | Previous Version | Text Only | Print | Product List | Glossary On
Versions: 1 2 3 4 5 6 7 8 9 10 11 12 13 14 15 16 17 18 19
000
FTUS44 KOHX 291700 RRA
TAFBNA
TAF
KBNA 291742Z 2918/3018 18015G25KT P6SM SCT250
     FM292100 19015G25KT P6SM BKN050 BKN250
     FM300300 22007KT 6SM -SHRA SCT025 BKN050
      TEMPO 3008/3012 4SM -SHRA BR BKN025 OVC050
     FM301400 32006KT P6SM SKC=

USA.gov is the U.S. government's official web portal to all federal, state and local government web resources and services.